UKV6098 NZNP-NZWN
Flight info
| Callsign | UKV6098 |
|---|---|
| Flight time | 1h 8m |
| Altitude | 6000 |
| Route | DAPNO Y738 TPAPA |
| Aircraft | C208/L-SDFGR/C |
Departure
| Time | 2026-04-14 20:11 |
|---|---|
| Airport | New Plymouth Airport (NZNP) |
Arrival
| Time | 2026-04-14 21:19 |
|---|---|
| Airport | Wellington International Airport (NZWN) |
| Time | Latitude | Longitude | Altitude | Speed | Heading |
|---|---|---|---|---|---|
| 2026-04-14 19:51 | -39.00945 | 174.17841 | 98 ft | 0 kts | 258° |
| 2026-04-14 20:03 | -39.00946 | 174.17832 | 104 ft | 2 kts | 260° |
| 2026-04-14 20:03 | -39.00932 | 174.17819 | 104 ft | 6 kts | 13° |
| 2026-04-14 20:03 | -39.00893 | 174.17840 | 101 ft | 0 kts | 23° |
| 2026-04-14 20:03 | -39.00879 | 174.17842 | 101 ft | 6 kts | 353° |
| 2026-04-14 20:04 | -39.00818 | 174.17809 | 102 ft | 13 kts | 330° |
| 2026-04-14 20:04 | -39.00739 | 174.17889 | 102 ft | 20 kts | 62° |
| 2026-04-14 20:04 | -39.00669 | 174.18087 | 102 ft | 28 kts | 65° |
| 2026-04-14 20:04 | -39.00591 | 174.18287 | 103 ft | 21 kts | 38° |
| 2026-04-14 20:05 | -39.00591 | 174.18315 | 103 ft | 9 kts | 253° |
| 2026-04-14 20:05 | -39.00597 | 174.18295 | 103 ft | 0 kts | 246° |
| 2026-04-14 20:10 | -39.00618 | 174.18231 | 104 ft | 26 kts | 246° |
| 2026-04-14 20:10 | -39.00763 | 174.17827 | 114 ft | 66 kts | 248° |
| 2026-04-14 20:11 | -39.00983 | 174.17278 | 283 ft | 70 kts | 246° |
| 2026-04-14 20:11 | -39.01157 | 174.16729 | 529 ft | 64 kts | 252° |
| 2026-04-14 20:11 | -39.01322 | 174.16153 | 662 ft | 81 kts | 253° |
| 2026-04-14 20:11 | -39.01542 | 174.15441 | 903 ft | 86 kts | 249° |
| 2026-04-14 20:12 | -39.01793 | 174.14740 | 1178 ft | 86 kts | 245° |
| 2026-04-14 20:12 | -39.02095 | 174.14098 | 1474 ft | 82 kts | 243° |
| 2026-04-14 20:12 | -39.02383 | 174.13444 | 1700 ft | 85 kts | 247° |
| 2026-04-14 20:12 | -39.02604 | 174.12732 | 1955 ft | 86 kts | 251° |
| 2026-04-14 20:13 | -39.02833 | 174.12013 | 2197 ft | 87 kts | 249° |
| 2026-04-14 20:13 | -39.03069 | 174.11301 | 2441 ft | 86 kts | 248° |
| 2026-04-14 20:13 | -39.03309 | 174.10598 | 2684 ft | 85 kts | 247° |
| 2026-04-14 20:13 | -39.03545 | 174.09908 | 2938 ft | 83 kts | 247° |
| 2026-04-14 20:14 | -39.03778 | 174.09232 | 3187 ft | 82 kts | 247° |
| 2026-04-14 20:14 | -39.04009 | 174.08567 | 3438 ft | 81 kts | 248° |
| 2026-04-14 20:14 | -39.04366 | 174.08013 | 3679 ft | 85 kts | 222° |
| 2026-04-14 20:14 | -39.04989 | 174.07893 | 3930 ft | 103 kts | 186° |
| 2026-04-14 20:15 | -39.05653 | 174.08416 | 4190 ft | 120 kts | 154° |
| 2026-04-14 20:15 | -39.06132 | 174.09044 | 4397 ft | 119 kts | 150° |
| 2026-04-14 20:15 | -39.06687 | 174.09797 | 4651 ft | 114 kts | 152° |
| 2026-04-14 20:15 | -39.07235 | 174.10518 | 4902 ft | 113 kts | 153° |
| 2026-04-14 20:16 | -39.07806 | 174.11236 | 5056 ft | 116 kts | 154° |
| 2026-04-14 20:16 | -39.08401 | 174.11965 | 5261 ft | 121 kts | 154° |
| 2026-04-14 20:16 | -39.08978 | 174.12667 | 5433 ft | 125 kts | 153° |
| 2026-04-14 20:16 | -39.09540 | 174.13352 | 5590 ft | 129 kts | 153° |
| 2026-04-14 20:17 | -39.10205 | 174.14163 | 5786 ft | 134 kts | 152° |
| 2026-04-14 20:17 | -39.10889 | 174.15009 | 5962 ft | 138 kts | 151° |
| 2026-04-14 20:17 | -39.11602 | 174.15883 | 6081 ft | 148 kts | 151° |
| 2026-04-14 20:17 | -39.12400 | 174.16831 | 6099 ft | 161 kts | 150° |
| 2026-04-14 20:18 | -39.13241 | 174.17844 | 6105 ft | 170 kts | 148° |
| 2026-04-14 20:18 | -39.14110 | 174.18923 | 6102 ft | 176 kts | 147° |
| 2026-04-14 20:18 | -39.14991 | 174.20051 | 6064 ft | 180 kts | 147° |
| 2026-04-14 20:18 | -39.16004 | 174.20835 | 6029 ft | 161 kts | 180° |
| 2026-04-14 20:19 | -39.17086 | 174.20977 | 6008 ft | 156 kts | 188° |
| 2026-04-14 20:19 | -39.18170 | 174.21137 | 5998 ft | 157 kts | 185° |
| 2026-04-14 20:19 | -39.19252 | 174.21321 | 5994 ft | 157 kts | 185° |
| 2026-04-14 20:19 | -39.20331 | 174.21501 | 5993 ft | 156 kts | 186° |
| 2026-04-14 20:20 | -39.21407 | 174.21675 | 6005 ft | 156 kts | 185° |
| 2026-04-14 20:20 | -39.22355 | 174.21827 | 6008 ft | 158 kts | 186° |
| 2026-04-14 20:20 | -39.23416 | 174.21992 | 5999 ft | 158 kts | 185° |
| 2026-04-14 20:20 | -39.24377 | 174.22142 | 5997 ft | 158 kts | 186° |
| 2026-04-14 20:21 | -39.25469 | 174.22311 | 5989 ft | 158 kts | 185° |
| 2026-04-14 20:21 | -39.26206 | 174.22428 | 5989 ft | 158 kts | 186° |
| 2026-04-14 20:21 | -39.27296 | 174.22597 | 5988 ft | 157 kts | 186° |
| 2026-04-14 20:21 | -39.28380 | 174.22770 | 5993 ft | 157 kts | 185° |
| 2026-04-14 20:22 | -39.29467 | 174.22943 | 5998 ft | 157 kts | 187° |
| 2026-04-14 20:22 | -39.30539 | 174.23108 | 5998 ft | 157 kts | 186° |
| 2026-04-14 20:22 | -39.31627 | 174.23276 | 5992 ft | 158 kts | 185° |
| 2026-04-14 20:22 | -39.32715 | 174.23444 | 5995 ft | 157 kts | 185° |
| 2026-04-14 20:23 | -39.33801 | 174.23614 | 5989 ft | 157 kts | 186° |
| 2026-04-14 20:23 | -39.34888 | 174.23782 | 5991 ft | 157 kts | 185° |
| 2026-04-14 20:23 | -39.35973 | 174.23956 | 5984 ft | 157 kts | 185° |
| 2026-04-14 20:23 | -39.37055 | 174.24129 | 5980 ft | 157 kts | 185° |
| 2026-04-14 20:24 | -39.38136 | 174.24302 | 5987 ft | 157 kts | 186° |
| 2026-04-14 20:24 | -39.39020 | 174.24438 | 5989 ft | 157 kts | 185° |
| 2026-04-14 20:24 | -39.40105 | 174.24609 | 5984 ft | 157 kts | 184° |
| 2026-04-14 20:24 | -39.41188 | 174.24781 | 5982 ft | 157 kts | 185° |
| 2026-04-14 20:25 | -39.42273 | 174.24952 | 5972 ft | 156 kts | 185° |
| 2026-04-14 20:25 | -39.43355 | 174.25125 | 5984 ft | 156 kts | 185° |
| 2026-04-14 20:25 | -39.44436 | 174.25297 | 5989 ft | 158 kts | 182° |
| 2026-04-14 20:25 | -39.45533 | 174.25470 | 5978 ft | 159 kts | 183° |
| 2026-04-14 20:26 | -39.46636 | 174.25638 | 5982 ft | 160 kts | 183° |
| 2026-04-14 20:26 | -39.47738 | 174.25806 | 5978 ft | 160 kts | 182° |
| 2026-04-14 20:26 | -39.48845 | 174.25978 | 5987 ft | 160 kts | 182° |
| 2026-04-14 20:26 | -39.49944 | 174.26154 | 5974 ft | 158 kts | 182° |
| 2026-04-14 20:27 | -39.51034 | 174.26328 | 5975 ft | 158 kts | 182° |
| 2026-04-14 20:27 | -39.52123 | 174.26509 | 5980 ft | 158 kts | 182° |
| 2026-04-14 20:27 | -39.53209 | 174.26693 | 5976 ft | 157 kts | 182° |
| 2026-04-14 20:27 | -39.54291 | 174.26875 | 5973 ft | 157 kts | 182° |
| 2026-04-14 20:28 | -39.55371 | 174.27052 | 5981 ft | 157 kts | 182° |
| 2026-04-14 20:28 | -39.56454 | 174.27226 | 5976 ft | 157 kts | 182° |
| 2026-04-14 20:28 | -39.57538 | 174.27398 | 5976 ft | 157 kts | 182° |
| 2026-04-14 20:28 | -39.58624 | 174.27572 | 5970 ft | 157 kts | 183° |
| 2026-04-14 20:29 | -39.59707 | 174.27743 | 5979 ft | 157 kts | 183° |
| 2026-04-14 20:29 | -39.60791 | 174.27915 | 5983 ft | 157 kts | 182° |
| 2026-04-14 20:29 | -39.61874 | 174.28086 | 5977 ft | 157 kts | 182° |
| 2026-04-14 20:29 | -39.62964 | 174.28257 | 5968 ft | 158 kts | 182° |
| 2026-04-14 20:30 | -39.64050 | 174.28432 | 5967 ft | 157 kts | 182° |
| 2026-04-14 20:30 | -39.65132 | 174.28606 | 5969 ft | 157 kts | 182° |
| 2026-04-14 20:30 | -39.66214 | 174.28780 | 5965 ft | 157 kts | 182° |
| 2026-04-14 20:30 | -39.67297 | 174.28956 | 5976 ft | 159 kts | 184° |
| 2026-04-14 20:31 | -39.68388 | 174.29055 | 5976 ft | 158 kts | 184° |
| 2026-04-14 20:31 | -39.69487 | 174.29212 | 5971 ft | 160 kts | 180° |
| 2026-04-14 20:31 | -39.70591 | 174.29418 | 5974 ft | 161 kts | 179° |
| 2026-04-14 20:31 | -39.71699 | 174.29626 | 5966 ft | 161 kts | 180° |
| 2026-04-14 20:32 | -39.72807 | 174.29824 | 5962 ft | 161 kts | 180° |
| 2026-04-14 20:32 | -39.73928 | 174.30015 | 5964 ft | 160 kts | 180° |
| 2026-04-14 20:32 | -39.75037 | 174.30199 | 5963 ft | 160 kts | 181° |
| 2026-04-14 20:32 | -39.76145 | 174.30380 | 5965 ft | 160 kts | 181° |
| 2026-04-14 20:33 | -39.77254 | 174.30558 | 5966 ft | 161 kts | 181° |
| 2026-04-14 20:33 | -39.78363 | 174.30737 | 5962 ft | 160 kts | 181° |
| 2026-04-14 20:33 | -39.79456 | 174.30913 | 5966 ft | 160 kts | 181° |
| 2026-04-14 20:34 | -39.81669 | 174.31270 | 5952 ft | 160 kts | 181° |
| 2026-04-14 20:34 | -39.82769 | 174.31447 | 5951 ft | 159 kts | 181° |
| 2026-04-14 20:34 | -39.83866 | 174.31624 | 5951 ft | 159 kts | 181° |
| 2026-04-14 20:34 | -39.84975 | 174.31803 | 5952 ft | 158 kts | 181° |
| 2026-04-14 20:35 | -39.86066 | 174.31979 | 5957 ft | 158 kts | 181° |
| 2026-04-14 20:35 | -39.87145 | 174.32152 | 5954 ft | 158 kts | 181° |
| 2026-04-14 20:35 | -39.88252 | 174.32329 | 5953 ft | 158 kts | 181° |
| 2026-04-14 20:35 | -39.89345 | 174.32504 | 5958 ft | 158 kts | 181° |
| 2026-04-14 20:36 | -39.90436 | 174.32678 | 5958 ft | 158 kts | 179° |
| 2026-04-14 20:36 | -39.91525 | 174.32859 | 5953 ft | 157 kts | 182° |
| 2026-04-14 20:36 | -39.92609 | 174.33034 | 5954 ft | 157 kts | 182° |
| 2026-04-14 20:36 | -39.93692 | 174.33212 | 5955 ft | 157 kts | 181° |
| 2026-04-14 20:37 | -39.94776 | 174.33385 | 5954 ft | 157 kts | 180° |
| 2026-04-14 20:37 | -39.95857 | 174.33565 | 5953 ft | 157 kts | 179° |
| 2026-04-14 20:37 | -39.96942 | 174.33745 | 5954 ft | 157 kts | 180° |
| 2026-04-14 20:37 | -39.98025 | 174.33920 | 5949 ft | 156 kts | 182° |
| 2026-04-14 20:38 | -39.99106 | 174.34085 | 5946 ft | 157 kts | 182° |
| 2026-04-14 20:38 | -40.00190 | 174.34262 | 5948 ft | 157 kts | 179° |
| 2026-04-14 20:38 | -40.01272 | 174.34440 | 5949 ft | 157 kts | 181° |
| 2026-04-14 20:38 | -40.02359 | 174.34620 | 5951 ft | 157 kts | 180° |
| 2026-04-14 20:39 | -40.03447 | 174.34793 | 5948 ft | 157 kts | 180° |
| 2026-04-14 20:39 | -40.04531 | 174.34968 | 5946 ft | 157 kts | 179° |
| 2026-04-14 20:39 | -40.05618 | 174.35146 | 5946 ft | 158 kts | 180° |
| 2026-04-14 20:39 | -40.06705 | 174.35325 | 5947 ft | 157 kts | 182° |
| 2026-04-14 20:40 | -40.07789 | 174.35497 | 5943 ft | 157 kts | 181° |
| 2026-04-14 20:40 | -40.08871 | 174.35664 | 5945 ft | 156 kts | 181° |
| 2026-04-14 20:40 | -40.09952 | 174.35841 | 5945 ft | 157 kts | 179° |
| 2026-04-14 20:40 | -40.11036 | 174.36019 | 5948 ft | 157 kts | 180° |
| 2026-04-14 20:41 | -40.12118 | 174.36200 | 5947 ft | 156 kts | 180° |
| 2026-04-14 20:41 | -40.13193 | 174.36377 | 5943 ft | 155 kts | 178° |
| 2026-04-14 20:41 | -40.14263 | 174.36553 | 5943 ft | 155 kts | 178° |
| 2026-04-14 20:41 | -40.15337 | 174.36726 | 5944 ft | 155 kts | 180° |
| 2026-04-14 20:42 | -40.16408 | 174.36892 | 5944 ft | 155 kts | 180° |
| 2026-04-14 20:42 | -40.17477 | 174.37065 | 5940 ft | 154 kts | 178° |
| 2026-04-14 20:42 | -40.19609 | 174.37420 | 5940 ft | 155 kts | 178° |
| 2026-04-14 20:43 | -40.20677 | 174.37596 | 5942 ft | 154 kts | 179° |
| 2026-04-14 20:43 | -40.21541 | 174.37737 | 5942 ft | 154 kts | 180° |
| 2026-04-14 20:43 | -40.22606 | 174.37919 | 5942 ft | 154 kts | 179° |
| 2026-04-14 20:43 | -40.23662 | 174.38098 | 5940 ft | 154 kts | 180° |
| 2026-04-14 20:44 | -40.24728 | 174.38270 | 5942 ft | 155 kts | 180° |
| 2026-04-14 20:44 | -40.25795 | 174.38437 | 5944 ft | 155 kts | 178° |
| 2026-04-14 20:44 | -40.26862 | 174.38606 | 5940 ft | 154 kts | 178° |
| 2026-04-14 20:44 | -40.27929 | 174.38778 | 5941 ft | 155 kts | 178° |
| 2026-04-14 20:45 | -40.28985 | 174.38952 | 6040 ft | 149 kts | 178° |
| 2026-04-14 20:45 | -40.30000 | 174.39117 | 6208 ft | 145 kts | 178° |
| 2026-04-14 20:45 | -40.30989 | 174.39281 | 6382 ft | 142 kts | 180° |
| 2026-04-14 20:45 | -40.31963 | 174.39444 | 6551 ft | 140 kts | 178° |
| 2026-04-14 20:46 | -40.32922 | 174.39606 | 6724 ft | 138 kts | 179° |
| 2026-04-14 20:46 | -40.33874 | 174.39763 | 6895 ft | 138 kts | 178° |
| 2026-04-14 20:46 | -40.34821 | 174.39922 | 7072 ft | 137 kts | 178° |
| 2026-04-14 20:46 | -40.35760 | 174.40079 | 7247 ft | 136 kts | 180° |
| 2026-04-14 20:47 | -40.36695 | 174.40234 | 7425 ft | 135 kts | 179° |
| 2026-04-14 20:47 | -40.37626 | 174.40390 | 7598 ft | 135 kts | 178° |
| 2026-04-14 20:47 | -40.38556 | 174.40542 | 7780 ft | 134 kts | 180° |
| 2026-04-14 20:47 | -40.39490 | 174.40684 | 7907 ft | 139 kts | 180° |
| 2026-04-14 20:48 | -40.40478 | 174.40834 | 7954 ft | 146 kts | 180° |
| 2026-04-14 20:48 | -40.41512 | 174.40982 | 7982 ft | 152 kts | 180° |
| 2026-04-14 20:48 | -40.42587 | 174.41140 | 7994 ft | 158 kts | 178° |
| 2026-04-14 20:48 | -40.43691 | 174.41321 | 7990 ft | 162 kts | 178° |
| 2026-04-14 20:49 | -40.44816 | 174.41503 | 7994 ft | 164 kts | 178° |
| 2026-04-14 20:49 | -40.45952 | 174.41698 | 7994 ft | 165 kts | 179° |
| 2026-04-14 20:49 | -40.47095 | 174.41887 | 7996 ft | 166 kts | 178° |
| 2026-04-14 20:49 | -40.48245 | 174.42074 | 7996 ft | 167 kts | 177° |
| 2026-04-14 20:50 | -40.49398 | 174.42272 | 7994 ft | 167 kts | 177° |
| 2026-04-14 20:50 | -40.50553 | 174.42471 | 7995 ft | 167 kts | 179° |
| 2026-04-14 20:50 | -40.51707 | 174.42668 | 7996 ft | 167 kts | 178° |
| 2026-04-14 20:50 | -40.52849 | 174.42856 | 7996 ft | 167 kts | 178° |
| 2026-04-14 20:51 | -40.54021 | 174.43042 | 7997 ft | 168 kts | 179° |
| 2026-04-14 20:51 | -40.55178 | 174.43220 | 7995 ft | 167 kts | 180° |
| 2026-04-14 20:51 | -40.56333 | 174.43397 | 7996 ft | 167 kts | 179° |
| 2026-04-14 20:51 | -40.57487 | 174.43578 | 7998 ft | 167 kts | 179° |
| 2026-04-14 20:52 | -40.58641 | 174.43767 | 7997 ft | 167 kts | 178° |
| 2026-04-14 20:52 | -40.59796 | 174.43964 | 7997 ft | 167 kts | 178° |
| 2026-04-14 20:52 | -40.60950 | 174.44164 | 7996 ft | 167 kts | 179° |
| 2026-04-14 20:52 | -40.62102 | 174.44349 | 7996 ft | 167 kts | 177° |
| 2026-04-14 20:53 | -40.63256 | 174.44543 | 7997 ft | 167 kts | 177° |
| 2026-04-14 20:53 | -40.64413 | 174.44734 | 7997 ft | 167 kts | 178° |
| 2026-04-14 20:53 | -40.65567 | 174.44930 | 7997 ft | 167 kts | 178° |
| 2026-04-14 20:53 | -40.66720 | 174.45125 | 7996 ft | 167 kts | 178° |
| 2026-04-14 20:54 | -40.67873 | 174.45315 | 7996 ft | 167 kts | 178° |
| 2026-04-14 20:54 | -40.69031 | 174.45494 | 8003 ft | 167 kts | 179° |
| 2026-04-14 20:54 | -40.70185 | 174.45680 | 7999 ft | 168 kts | 178° |
| 2026-04-14 20:54 | -40.71343 | 174.45874 | 7996 ft | 168 kts | 179° |
| 2026-04-14 20:55 | -40.72500 | 174.46069 | 8003 ft | 168 kts | 178° |
| 2026-04-14 20:55 | -40.73641 | 174.46277 | 7995 ft | 168 kts | 178° |
| 2026-04-14 20:55 | -40.74812 | 174.46477 | 7996 ft | 168 kts | 179° |
| 2026-04-14 20:55 | -40.75969 | 174.46663 | 7994 ft | 168 kts | 177° |
| 2026-04-14 20:56 | -40.77124 | 174.46868 | 7998 ft | 168 kts | 176° |
| 2026-04-14 20:56 | -40.78278 | 174.47090 | 8002 ft | 167 kts | 176° |
| 2026-04-14 20:56 | -40.79431 | 174.47287 | 8001 ft | 167 kts | 176° |
| 2026-04-14 20:56 | -40.80586 | 174.47482 | 8000 ft | 167 kts | 176° |
| 2026-04-14 20:57 | -40.81738 | 174.47681 | 7996 ft | 167 kts | 176° |
| 2026-04-14 20:57 | -40.82500 | 174.47814 | 7997 ft | 167 kts | 176° |
| 2026-04-14 20:57 | -40.83652 | 174.48016 | 7998 ft | 167 kts | 176° |
| 2026-04-14 20:57 | -40.84803 | 174.48220 | 7998 ft | 167 kts | 176° |
| 2026-04-14 20:58 | -40.85956 | 174.48424 | 8001 ft | 167 kts | 176° |
| 2026-04-14 20:58 | -40.87109 | 174.48626 | 8000 ft | 167 kts | 176° |
| 2026-04-14 20:58 | -40.88261 | 174.48830 | 8000 ft | 167 kts | 176° |
| 2026-04-14 20:58 | -40.89414 | 174.49035 | 8000 ft | 167 kts | 176° |
| 2026-04-14 20:59 | -40.90567 | 174.49239 | 8000 ft | 167 kts | 176° |
| 2026-04-14 20:59 | -40.91721 | 174.49443 | 8000 ft | 167 kts | 176° |
| 2026-04-14 20:59 | -40.92874 | 174.49647 | 8000 ft | 167 kts | 176° |
| 2026-04-14 20:59 | -40.93772 | 174.49807 | 7999 ft | 167 kts | 176° |
| 2026-04-14 21:00 | -40.94925 | 174.50018 | 8002 ft | 167 kts | 176° |
| 2026-04-14 21:00 | -40.96078 | 174.50217 | 8005 ft | 167 kts | 176° |
| 2026-04-14 21:00 | -40.97230 | 174.50422 | 8002 ft | 167 kts | 176° |
| 2026-04-14 21:00 | -40.98381 | 174.50626 | 8002 ft | 167 kts | 176° |
| 2026-04-14 21:01 | -40.99532 | 174.50830 | 8001 ft | 167 kts | 176° |
| 2026-04-14 21:01 | -41.00683 | 174.51033 | 8006 ft | 167 kts | 176° |
| 2026-04-14 21:01 | -41.01832 | 174.51234 | 8003 ft | 166 kts | 176° |
| 2026-04-14 21:01 | -41.02980 | 174.51439 | 8001 ft | 166 kts | 176° |
| 2026-04-14 21:02 | -41.04123 | 174.51643 | 8003 ft | 166 kts | 176° |
| 2026-04-14 21:02 | -41.05266 | 174.51847 | 8002 ft | 166 kts | 176° |
| 2026-04-14 21:02 | -41.06410 | 174.52051 | 8001 ft | 166 kts | 176° |
| 2026-04-14 21:02 | -41.07552 | 174.52254 | 8001 ft | 166 kts | 176° |
| 2026-04-14 21:03 | -41.08693 | 174.52468 | 7996 ft | 166 kts | 175° |
| 2026-04-14 21:03 | -41.09831 | 174.52716 | 7997 ft | 166 kts | 174° |
| 2026-04-14 21:03 | -41.10971 | 174.52970 | 7997 ft | 166 kts | 174° |
| 2026-04-14 21:03 | -41.12110 | 174.53220 | 7997 ft | 166 kts | 174° |
| 2026-04-14 21:04 | -41.13251 | 174.53467 | 7998 ft | 166 kts | 174° |
| 2026-04-14 21:04 | -41.14392 | 174.53714 | 7998 ft | 166 kts | 174° |
| 2026-04-14 21:04 | -41.15532 | 174.53960 | 7997 ft | 166 kts | 174° |
| 2026-04-14 21:04 | -41.16672 | 174.54204 | 7996 ft | 166 kts | 174° |
| 2026-04-14 21:05 | -41.17828 | 174.54452 | 7996 ft | 166 kts | 174° |
| 2026-04-14 21:05 | -41.18955 | 174.54694 | 7994 ft | 166 kts | 174° |
| 2026-04-14 21:05 | -41.20113 | 174.54943 | 7993 ft | 166 kts | 174° |
| 2026-04-14 21:05 | -41.21252 | 174.55187 | 7985 ft | 166 kts | 174° |
| 2026-04-14 21:06 | -41.22412 | 174.55435 | 7805 ft | 167 kts | 175° |
| 2026-04-14 21:06 | -41.23534 | 174.55674 | 7571 ft | 161 kts | 174° |
| 2026-04-14 21:06 | -41.24623 | 174.55907 | 7329 ft | 156 kts | 174° |
| 2026-04-14 21:06 | -41.25687 | 174.56135 | 7076 ft | 154 kts | 174° |
| 2026-04-14 21:07 | -41.26690 | 174.56353 | 7083 ft | 139 kts | 174° |
| 2026-04-14 21:07 | -41.27613 | 174.56561 | 7092 ft | 131 kts | 174° |
| 2026-04-14 21:07 | -41.28494 | 174.56757 | 7100 ft | 126 kts | 174° |
| 2026-04-14 21:07 | -41.29348 | 174.56980 | 7106 ft | 125 kts | 169° |
| 2026-04-14 21:08 | -41.30170 | 174.57347 | 7111 ft | 125 kts | 162° |
| 2026-04-14 21:08 | -41.30967 | 174.57797 | 7114 ft | 124 kts | 161° |
| 2026-04-14 21:08 | -41.31788 | 174.58273 | 6946 ft | 136 kts | 160° |
| 2026-04-14 21:08 | -41.32679 | 174.58780 | 6728 ft | 142 kts | 160° |
| 2026-04-14 21:09 | -41.33595 | 174.59306 | 6507 ft | 145 kts | 159° |
| 2026-04-14 21:09 | -41.34522 | 174.59844 | 6287 ft | 146 kts | 159° |
| 2026-04-14 21:09 | -41.35452 | 174.60387 | 6062 ft | 146 kts | 158° |
| 2026-04-14 21:09 | -41.36385 | 174.60932 | 5829 ft | 146 kts | 158° |
| 2026-04-14 21:10 | -41.37318 | 174.61476 | 5595 ft | 146 kts | 158° |
| 2026-04-14 21:10 | -41.38250 | 174.62020 | 5361 ft | 146 kts | 158° |
| 2026-04-14 21:10 | -41.39178 | 174.62560 | 5126 ft | 145 kts | 158° |
| 2026-04-14 21:10 | -41.40086 | 174.63149 | 4906 ft | 146 kts | 148° |
| 2026-04-14 21:11 | -41.40815 | 174.64089 | 4676 ft | 147 kts | 131° |
| 2026-04-14 21:11 | -41.41438 | 174.65172 | 4450 ft | 147 kts | 130° |
| 2026-04-14 21:11 | -41.42055 | 174.66253 | 4213 ft | 146 kts | 130° |
| 2026-04-14 21:11 | -41.42664 | 174.67311 | 3980 ft | 142 kts | 133° |
| 2026-04-14 21:12 | -41.43267 | 174.68345 | 3748 ft | 141 kts | 132° |
| 2026-04-14 21:12 | -41.43868 | 174.69376 | 3516 ft | 140 kts | 132° |
| 2026-04-14 21:12 | -41.44461 | 174.70398 | 3315 ft | 138 kts | 134° |
| 2026-04-14 21:12 | -41.45050 | 174.71405 | 3115 ft | 137 kts | 135° |
| 2026-04-14 21:13 | -41.45634 | 174.72402 | 2913 ft | 136 kts | 135° |
| 2026-04-14 21:13 | -41.46214 | 174.73394 | 2706 ft | 135 kts | 135° |
| 2026-04-14 21:13 | -41.46792 | 174.74382 | 2503 ft | 135 kts | 134° |
| 2026-04-14 21:14 | -41.47962 | 174.76325 | 2134 ft | 132 kts | 133° |
| 2026-04-14 21:14 | -41.48156 | 174.77499 | 2057 ft | 139 kts | 78° |
| 2026-04-14 21:14 | -41.47525 | 174.78440 | 2031 ft | 140 kts | 22° |
| 2026-04-14 21:14 | -41.46664 | 174.78981 | 2020 ft | 136 kts | 41° |
| 2026-04-14 21:15 | -41.45941 | 174.79774 | 2009 ft | 134 kts | 39° |
| 2026-04-14 21:15 | -41.45087 | 174.80109 | 2017 ft | 126 kts | 357° |
| 2026-04-14 21:15 | -41.44232 | 174.80115 | 2005 ft | 120 kts | 356° |
| 2026-04-14 21:15 | -41.43402 | 174.80088 | 1998 ft | 116 kts | 356° |
| 2026-04-14 21:16 | -41.42584 | 174.80067 | 1868 ft | 121 kts | 357° |
| 2026-04-14 21:16 | -41.41729 | 174.80067 | 1712 ft | 123 kts | 359° |
| 2026-04-14 21:16 | -41.40886 | 174.80100 | 1530 ft | 119 kts | 0° |
| 2026-04-14 21:16 | -41.40075 | 174.80151 | 1362 ft | 114 kts | 3° |
| 2026-04-14 21:17 | -41.39294 | 174.80221 | 1209 ft | 111 kts | 4° |
| 2026-04-14 21:17 | -41.38536 | 174.80298 | 1058 ft | 108 kts | 4° |
| 2026-04-14 21:17 | -41.37804 | 174.80365 | 911 ft | 106 kts | 4° |
| 2026-04-14 21:17 | -41.37078 | 174.80424 | 761 ft | 103 kts | 3° |
| 2026-04-14 21:18 | -41.36384 | 174.80471 | 645 ft | 92 kts | 3° |
| 2026-04-14 21:18 | -41.35770 | 174.80505 | 523 ft | 85 kts | 2° |
| 2026-04-14 21:18 | -41.35222 | 174.80535 | 396 ft | 73 kts | 1° |
| 2026-04-14 21:18 | -41.34750 | 174.80551 | 257 ft | 66 kts | 2° |
| 2026-04-14 21:19 | -41.34304 | 174.80593 | 189 ft | 61 kts | 359° |
| 2026-04-14 21:19 | -41.33879 | 174.80605 | 116 ft | 62 kts | 356° |
| 2026-04-14 21:19 | -41.33448 | 174.80638 | 15 ft | 58 kts | 1° |
| 2026-04-14 21:19 | -41.33111 | 174.80662 | 14 ft | 37 kts | 10° |
| 2026-04-14 21:20 | -41.32981 | 174.80683 | 18 ft | 8 kts | 33° |
| 2026-04-14 21:20 | -41.32966 | 174.80729 | 18 ft | 5 kts | 87° |
| 2026-04-14 21:20 | -41.32964 | 174.80770 | 17 ft | 4 kts | 89° |
| 2026-04-14 21:20 | -41.32966 | 174.80811 | 16 ft | 5 kts | 95° |
| 2026-04-14 21:21 | -41.32986 | 174.80867 | 15 ft | 7 kts | 148° |
| 2026-04-14 21:21 | -41.33021 | 174.80892 | 16 ft | 4 kts | 152° |
| 2026-04-14 21:21 | -41.33041 | 174.80906 | 17 ft | 3 kts | 152° |
| 2026-04-14 21:21 | -41.33051 | 174.80913 | 17 ft | 0 kts | 152° |
| 2026-04-14 21:22 | -41.33056 | 174.80916 | 18 ft | 4 kts | 151° |
| 2026-04-14 21:22 | -41.33071 | 174.80928 | 18 ft | 0 kts | 145° |
| 2026-04-14 21:22 | -41.33097 | 174.80954 | 19 ft | 9 kts | 143° |
| 2026-04-14 21:22 | -41.33142 | 174.80999 | 19 ft | 13 kts | 141° |
| 2026-04-14 21:23 | -41.33204 | 174.81065 | 19 ft | 9 kts | 96° |
| 2026-04-14 21:23 | -41.33171 | 174.81084 | 19 ft | 0 kts | 340° |